Sansom Park, Texas
Current Conditions -  °F | °C
As of 10:52 AM on Wednesday 22 Oct 2014 (Local Time) from KNFW Reporting Station
Few Clouds Few Clouds  
Wind Chill: 77°   Ceiling: Unl
Heat Index: 79°   Visibility: 10mi
Dew Point: 60°   Wind: 10mph
Humidity: 56%   Direction: 130°SE
Pressure: 30.2"   Gusts: NA
Location:  32.7763°N, 97.4092°W
Report Text: KNFW 221552Z 13009KT 10SM FEW250 25/16 A3020 RMK AO2 SLP208 T02500156 VISNO N $
Loading
Personal Weather Stations






























Interactive Weather Map
Tropical Storm Tracking
New forecast layout! Learn more

10-Day Weather Forecast

Advertisements
Track Severe Weather on mobile